Time;durP1;ratioP1;P1;durP2;ratioP2;P2;SDS_P1;SDS_P2;PMS_P1;PMS_P2;Temp;Humidity;BMP_temperature;BMP_pressure;BME280_temperature;BME280_humidity;BME280_pressure;Samples;Min_cycle;Max_cycle;Signal;HPM_P1;HPM_P2
2023/01/11 00:01:51;;;;;;;5.95;0.90;;;7.50;1.00;;;;;;5070367;28;20441;-50
2023/01/11 00:04:18;;;;;;;5.70;0.80;;;7.50;1.00;;;;;;5070803;28;20818;-50
2023/01/11 00:06:44;;;;;;;4.72;0.80;;;7.50;1.00;;;;;;5070241;28;20375;-52
2023/01/11 00:09:10;;;;;;;6.50;0.70;;;7.50;1.00;;;;;;5071201;28;20387;-50
2023/01/11 00:11:35;;;;;;;8.40;0.80;;;7.60;1.00;;;;;;5070534;28;20429;-50
2023/01/11 00:14:01;;;;;;;4.70;0.90;;;7.60;1.00;;;;;;5069698;28;20490;-50
2023/01/11 00:16:27;;;;;;;5.00;0.70;;;7.60;1.00;;;;;;5070621;28;20380;-50
2023/01/11 00:18:52;;;;;;;7.57;0.77;;;7.70;1.00;;;;;;5069806;28;20437;-49
2023/01/11 00:21:18;;;;;;;5.60;0.90;;;8.10;1.00;;;;;;5071359;28;20433;-50
2023/01/11 00:23:48;;;;;;;5.20;0.65;;;7.80;1.00;;;;;;5069857;28;20449;-54
2023/01/11 00:26:14;;;;;;;4.70;0.70;;;7.70;1.00;;;;;;5070314;28;20469;-50
2023/01/11 00:28:39;;;;;;;6.60;1.03;;;7.70;1.00;;;;;;5070944;28;20797;-50
2023/01/11 00:31:05;;;;;;;6.68;0.70;;;7.80;1.00;;;;;;5051616;28;20689;-50
2023/01/11 00:33:30;;;;;;;5.83;0.60;;;7.80;1.00;;;;;;5070018;28;20380;-49
2023/01/11 00:35:56;;;;;;;4.10;0.60;;;7.80;1.00;;;;;;5069573;28;20423;-50
2023/01/11 00:49:20;;;;;;;4.85;0.77;;;7.80;1.00;;;;;;5069916;28;20376;-50
2023/01/11 00:51:46;;;;;;;4.75;0.73;;;7.80;1.00;;;;;;5068852;28;20412;-52
2023/01/11 00:54:11;;;;;;;4.40;0.60;;;7.80;1.00;;;;;;5070054;28;20384;-51
2023/01/11 00:56:37;;;;;;;4.95;0.70;;;7.80;1.00;;;;;;5070068;28;20842;-49
2023/01/11 00:59:03;;;;;;;4.30;0.60;;;7.80;1.00;;;;;;5069169;28;20580;-50
2023/01/11 01:01:29;;;;;;;6.50;0.80;;;7.80;1.00;;;;;;5070082;28;20436;-50
2023/01/11 01:03:55;;;;;;;4.43;0.65;;;7.70;1.00;;;;;;5068882;28;20800;-50
2023/01/11 01:06:20;;;;;;;4.80;0.90;;;7.70;1.00;;;;;;5069573;28;20388;-50
2023/01/11 01:08:46;;;;;;;5.90;0.77;;;7.70;1.00;;;;;;5069585;28;20380;-53
2023/01/11 01:11:12;;;;;;;4.60;0.70;;;7.70;1.00;;;;;;5069249;28;20777;-50
2023/01/11 01:16:22;;;;;;;5.65;0.95;;;7.80;1.00;;;;;;5069070;28;20403;-49
2023/01/11 01:18:48;;;;;;;4.50;0.70;;;8.50;1.00;;;;;;5069125;28;20411;-51
2023/01/11 01:21:13;;;;;;;5.13;0.82;;;8.60;1.00;;;;;;5070023;28;20856;-50
2023/01/11 01:23:39;;;;;;;5.45;0.60;;;7.80;1.00;;;;;;5069905;28;20368;-50
2023/01/11 01:26:05;;;;;;;4.40;0.90;;;8.80;1.00;;;;;;5068810;28;20380;-50
2023/01/11 01:28:32;;;;;;;5.30;0.80;;;7.60;1.00;;;;;;5051656;28;20417;-50
2023/01/11 01:30:57;;;;;;;4.20;0.77;;;7.70;1.00;;;;;;5067811;28;20459;-51
2023/01/11 01:33:23;;;;;;;6.13;0.87;;;8.80;1.00;;;;;;5068763;28;20379;-50
2023/01/11 01:35:49;;;;;;;4.57;0.77;;;7.70;1.00;;;;;;5068618;28;20468;-50
2023/01/11 01:38:15;;;;;;;3.93;0.40;;;8.10;1.00;;;;;;5069788;28;20490;-50
2023/01/11 01:40:45;;;;;;;5.20;0.50;;;7.70;1.00;;;;;;5069576;28;20778;-49
2023/01/11 01:43:12;;;;;;;4.30;0.60;;;7.70;1.00;;;;;;5068794;28;20388;-50
2023/01/11 01:45:40;;;;;;;4.18;0.60;;;7.80;1.00;;;;;;5069050;28;20745;-50
2023/01/11 01:48:08;;;;;;;4.47;0.68;;;7.70;1.00;;;;;;5068593;28;20384;-50
2023/01/11 01:50:49;;;;;;;4.60;0.68;;;7.70;5.10;;;;;;5069508;28;20403;-49
2023/01/11 01:53:27;;;;;;;4.50;0.60;;;7.60;52.60;;;;;;5062778;28;20403;-49
2023/01/11 01:55:57;;;;;;;6.43;0.80;;;7.60;95.00;;;;;;5048619;28;20877;-50
2023/01/11 01:58:30;;;;;;;4.00;0.50;;;9.10;99.90;;;;;;5047909;28;20468;-55
2023/01/11 02:00:55;;;;;;;4.80;0.50;;;7.60;99.90;;;;;;5048640;28;20508;-50
2023/01/11 02:03:25;;;;;;;4.20;0.50;;;8.90;99.90;;;;;;5048689;28;20505;-50
2023/01/11 02:05:52;;;;;;;4.60;0.60;;;7.60;99.90;;;;;;5048496;28;20468;-49
2023/01/11 02:08:34;;;;;;;4.20;0.50;;;7.70;99.90;;;;;;5049094;28;20405;-49
2023/01/11 02:11:02;;;;;;;4.70;0.80;;;7.60;99.90;;;;;;5048702;28;20480;-51
2023/01/11 02:13:29;;;;;;;6.10;0.85;;;9.20;99.90;;;;;;5053394;28;20380;-50
2023/01/11 02:16:07;;;;;;;4.45;0.55;;;7.70;99.90;;;;;;5052160;28;20377;-50
2023/01/11 02:18:35;;;;;;;4.53;0.50;;;8.60;99.90;;;;;;5052862;28;20491;-50
2023/01/11 02:21:45;;;;;;;4.90;0.60;;;7.60;99.90;;;;;;5052433;28;20394;-50
2023/01/11 02:24:47;;;;;;;4.10;0.40;;;7.60;1.00;;;;;;4990302;28;20943;-50
2023/01/11 02:27:27;;;;;;;4.57;0.50;;;7.70;53.40;;;;;;5052731;28;20895;-50
2023/01/11 02:30:22;;;;;;;4.68;0.60;;;7.80;87.50;;;;;;5052734;28;20382;-49
2023/01/11 02:32:57;;;;;;;4.40;0.50;;;7.70;99.90;;;;;;5052125;28;20447;-49
2023/01/11 02:35:49;;;;;;;4.32;0.60;;;7.70;99.90;;;;;;5051887;28;20502;-49
2023/01/11 02:38:28;;;;;;;4.40;0.75;;;7.70;99.90;;;;;;5052690;28;20404;-50
2023/01/11 02:41:26;;;;;;;4.00;0.50;;;7.70;1.00;;;;;;5051418;28;20389;-50
2023/01/11 02:47:02;;;;;;;3.90;0.40;;;7.90;99.90;;;;;;5050932;28;20429;-50
2023/01/11 02:49:39;;;;;;;4.30;0.70;;;9.50;99.90;;;;;;5052050;28;20392;-50
2023/01/11 02:52:13;;;;;;;4.60;0.60;;;8.00;1.00;;;;;;5050807;28;20504;-50
2023/01/11 02:54:43;;;;;;;4.10;0.55;;;8.10;99.90;;;;;;5058549;28;20388;-50
2023/01/11 02:57:10;;;;;;;5.10;0.40;;;8.10;99.90;;;;;;5071020;28;20387;-51
2023/01/11 02:59:36;;;;;;;4.03;0.50;;;8.20;99.90;;;;;;5071788;28;20388;-50
2023/01/11 03:02:02;;;;;;;4.63;0.40;;;8.20;99.90;;;;;;5071106;28;20380;-50
2023/01/11 03:04:35;;;;;;;3.90;0.50;;;8.30;99.90;;;;;;5071706;28;20421;-50
2023/01/11 03:07:27;;;;;;;3.90;0.50;;;8.30;99.90;;;;;;5071019;28;20394;-50
2023/01/11 03:10:12;;;;;;;3.93;0.40;;;8.30;99.90;;;;;;5071547;28;20404;-50
2023/01/11 03:13:01;;;;;;;4.10;0.50;;;8.20;99.90;;;;;;5071917;28;20399;-49
2023/01/11 03:15:33;;;;;;;4.57;0.75;;;8.20;99.90;;;;;;5072124;28;20472;-50
2023/01/11 03:18:07;;;;;;;4.30;0.60;;;8.20;1.00;;;;;;5071195;28;20387;-50
2023/01/11 03:20:49;;;;;;;4.60;0.40;;;8.20;1.00;;;;;;5072530;28;20447;-50
2023/01/11 03:23:28;;;;;;;4.20;0.50;;;8.20;1.00;;;;;;5071826;28;20380;-50
2023/01/11 03:26:21;;;;;;;3.72;0.32;;;8.30;1.00;;;;;;5071216;28;20836;-51
2023/01/11 03:29:11;;;;;;;4.80;0.60;;;8.40;1.00;;;;;;5071952;28;20372;-54
2023/01/11 03:31:59;;;;;;;5.00;0.50;;;8.40;1.00;;;;;;5072172;28;20891;-50
2023/01/11 03:34:47;;;;;;;3.80;0.35;;;8.40;1.00;;;;;;5070372;28;20420;-50
2023/01/11 03:37:16;;;;;;;3.90;0.40;;;8.40;1.00;;;;;;5071443;28;20411;-50
2023/01/11 03:40:05;;;;;;;3.90;0.30;;;8.50;1.00;;;;;;5071644;28;20387;-50
2023/01/11 03:42:33;;;;;;;4.40;0.50;;;8.50;1.00;;;;;;5071318;28;20909;-50
2023/01/11 03:45:01;;;;;;;4.80;0.60;;;8.60;1.00;;;;;;5070778;28;20376;-49
2023/01/11 03:47:29;;;;;;;4.00;0.40;;;8.50;1.00;;;;;;5071208;28;20442;-51
2023/01/11 03:50:03;;;;;;;4.50;0.50;;;9.30;99.90;;;;;;5071093;28;20376;-50
2023/01/11 03:52:33;;;;;;;4.03;0.57;;;8.50;99.90;;;;;;5071501;28;20403;-50
2023/01/11 03:55:02;;;;;;;4.00;0.47;;;8.50;1.00;;;;;;5071298;28;20390;-49
2023/01/11 03:57:33;;;;;;;3.80;0.50;;;8.60;1.00;;;;;;5071881;28;20379;-51
2023/01/11 03:59:59;;;;;;;5.85;0.90;;;8.60;99.90;;;;;;5070819;28;20384;-50
2023/01/11 04:02:32;;;;;;;4.70;0.50;;;8.60;99.90;;;;;;5071096;28;20471;-50
2023/01/11 04:04:58;;;;;;;4.80;0.40;;;8.60;1.00;;;;;;5071277;28;20383;-50
2023/01/11 04:07:23;;;;;;;4.20;0.70;;;8.70;1.00;;;;;;5071051;28;20399;-50
2023/01/11 04:09:49;;;;;;;4.07;0.50;;;8.70;99.90;;;;;;5071081;28;20387;-54
2023/01/11 04:12:14;;;;;;;4.00;0.50;;;8.80;99.90;;;;;;5052730;28;20490;-50
2023/01/11 04:14:40;;;;;;;3.70;0.30;;;9.50;99.90;;;;;;5070904;28;20398;-50
2023/01/11 04:17:06;;;;;;;3.93;0.40;;;8.90;1.00;;;;;;5070219;28;21302;-50
2023/01/11 04:19:31;;;;;;;3.92;0.50;;;8.90;1.00;;;;;;5071118;28;20371;-50
2023/01/11 04:21:57;;;;;;;5.57;0.50;;;8.90;99.90;;;;;;5070150;28;20395;-50
2023/01/11 04:24:22;;;;;;;3.90;0.30;;;9.10;99.90;;;;;;5070876;28;20829;-50
2023/01/11 04:26:48;;;;;;;5.87;0.60;;;8.90;99.90;;;;;;5069986;28;20423;-51
2023/01/11 04:29:14;;;;;;;4.70;0.90;;;8.90;99.90;;;;;;5070979;28;20384;-51
2023/01/11 04:31:39;;;;;;;3.90;0.30;;;9.00;99.90;;;;;;5070786;28;20403;-50
2023/01/11 04:34:05;;;;;;;5.60;0.40;;;9.00;99.90;;;;;;5069362;28;20887;-50
2023/01/11 04:36:32;;;;;;;4.60;0.37;;;9.00;99.90;;;;;;5070351;28;20411;-53
2023/01/11 04:38:58;;;;;;;4.00;0.30;;;9.00;81.00;;;;;;5069904;28;20423;-50
2023/01/11 04:44:08;;;;;;;4.40;0.60;;;9.00;1.00;;;;;;5069887;28;20448;-50
2023/01/11 04:46:34;;;;;;;4.07;0.47;;;9.00;1.00;;;;;;5070403;28;20459;-51
2023/01/11 04:48:59;;;;;;;4.90;0.40;;;8.90;1.00;;;;;;5069835;28;20383;-50
2023/01/11 04:51:25;;;;;;;4.80;0.50;;;8.90;1.00;;;;;;5070366;28;20412;-51
2023/01/11 04:53:50;;;;;;;3.60;0.20;;;9.10;1.00;;;;;;5069801;28;20380;-54
2023/01/11 04:56:17;;;;;;;3.80;0.40;;;8.80;1.00;;;;;;5070222;28;20375;-50
2023/01/11 04:58:43;;;;;;;3.97;0.30;;;8.90;23.40;;;;;;5052640;28;20710;-50
2023/01/11 05:01:16;;;;;;;4.50;0.60;;;8.90;1.00;;;;;;5067072;28;20445;-50
2023/01/11 05:03:42;;;;;;;3.80;0.50;;;8.80;99.90;;;;;;5057482;28;20427;-50
2023/01/11 05:06:08;;;;;;;4.40;0.40;;;8.80;1.00;;;;;;5048952;28;20691;-50
2023/01/11 05:08:34;;;;;;;3.70;0.30;;;8.70;99.90;;;;;;5050137;28;20898;-51
2023/01/11 05:11:03;;;;;;;3.70;0.40;;;8.80;37.70;;;;;;5055689;28;20494;-50
2023/01/11 05:13:41;;;;;;;4.40;0.40;;;8.90;99.90;;;;;;5069967;28;20386;-50
2023/01/11 05:16:09;;;;;;;3.75;0.30;;;8.90;99.90;;;;;;5068645;28;20379;-50
2023/01/11 05:18:37;;;;;;;4.10;0.40;;;9.00;1.00;;;;;;5069727;28;20875;-51
2023/01/11 05:21:05;;;;;;;5.00;0.30;;;8.90;99.90;;;;;;5068827;28;20391;-50
2023/01/11 05:23:31;;;;;;;4.20;0.60;;;8.90;1.00;;;;;;5069157;28;20425;-50
2023/01/11 05:25:57;;;;;;;6.50;0.80;;;8.80;1.00;;;;;;5069289;28;20859;-50
2023/01/11 05:28:23;;;;;;;3.78;0.22;;;9.10;1.00;;;;;;5069379;28;20484;-50
2023/01/11 05:30:54;;;;;;;3.70;0.40;;;8.80;99.90;;;;;;5069107;28;20467;-54
2023/01/11 05:33:20;;;;;;;3.80;0.40;;;8.70;63.90;;;;;;5069790;28;20380;-50
2023/01/11 05:35:46;;;;;;;4.10;0.40;;;8.60;1.00;;;;;;5069659;28;20441;-50
2023/01/11 05:38:11;;;;;;;3.60;0.30;;;9.30;1.00;;;;;;5068386;28;20396;-50
2023/01/11 05:40:37;;;;;;;4.60;0.40;;;8.60;1.00;;;;;;5068967;28;20753;-50
2023/01/11 05:43:03;;;;;;;4.60;0.30;;;8.60;1.00;;;;;;5069036;28;20420;-50
2023/01/11 05:45:30;;;;;;;4.20;0.40;;;8.60;94.10;;;;;;5069909;28;20401;-51
2023/01/11 05:47:57;;;;;;;5.10;0.50;;;8.70;1.00;;;;;;5052965;28;20373;-50
2023/01/11 05:50:23;;;;;;;3.80;0.40;;;8.60;1.00;;;;;;5052249;28;20724;-50
2023/01/11 05:52:49;;;;;;;4.00;0.40;;;8.60;99.90;;;;;;5066108;28;20407;-52
2023/01/11 05:55:15;;;;;;;3.80;0.40;;;8.60;99.90;;;;;;5072987;28;20393;-50
2023/01/11 05:57:43;;;;;;;5.30;0.40;;;8.70;99.90;;;;;;5074222;28;20376;-50
2023/01/11 06:00:11;;;;;;;4.20;0.70;;;8.70;99.90;;;;;;5063822;28;20516;-50
2023/01/11 06:02:37;;;;;;;4.40;0.35;;;8.70;1.00;;;;;;5053068;28;20735;-51
2023/01/11 06:05:04;;;;;;;5.00;0.65;;;8.60;99.90;;;;;;5052856;28;20399;-50
2023/01/11 06:07:29;;;;;;;4.50;0.30;;;8.60;99.90;;;;;;5069669;28;20427;-50
2023/01/11 06:09:55;;;;;;;3.50;0.30;;;8.60;99.90;;;;;;5071082;28;20856;-51
2023/01/11 06:12:20;;;;;;;3.70;0.40;;;8.60;99.90;;;;;;5064960;28;20886;-50
2023/01/11 06:14:46;;;;;;;4.60;0.30;;;8.60;99.90;;;;;;5067088;28;20498;-51
2023/01/11 06:17:12;;;;;;;3.70;0.40;;;8.60;1.00;;;;;;5072536;28;20759;-50
2023/01/11 06:19:37;;;;;;;3.80;0.50;;;8.60;1.00;;;;;;5073113;28;20764;-51
2023/01/11 06:22:03;;;;;;;3.60;0.30;;;8.60;1.00;;;;;;5062783;28;20479;-50
2023/01/11 06:24:28;;;;;;;4.40;0.50;;;8.60;1.00;;;;;;5068074;28;20833;-51
2023/01/11 06:26:54;;;;;;;3.80;0.40;;;8.60;1.00;;;;;;5072599;28;20383;-51
2023/01/11 06:29:20;;;;;;;3.70;0.50;;;9.70;1.00;;;;;;5072579;28;20895;-51
2023/01/11 06:31:46;;;;;;;5.20;0.38;;;8.60;1.00;;;;;;5072390;28;20415;-52
2023/01/11 06:34:11;;;;;;;3.83;0.40;;;8.60;1.00;;;;;;5072216;28;20479;-52
2023/01/11 06:36:37;;;;;;;3.70;0.40;;;8.60;1.00;;;;;;5072243;28;20415;-51
2023/01/11 06:39:04;;;;;;;3.90;0.57;;;8.70;1.00;;;;;;5071470;28;20491;-52
2023/01/11 06:41:30;;;;;;;4.57;0.77;;;8.70;1.00;;;;;;5072522;28;20507;-51
2023/01/11 06:43:55;;;;;;;3.95;0.40;;;8.70;1.00;;;;;;5072170;28;20797;-51
2023/01/11 06:46:21;;;;;;;3.70;0.40;;;9.10;99.90;;;;;;5072720;28;20852;-52
2023/01/11 06:48:46;;;;;;;3.70;0.50;;;8.80;99.90;;;;;;5072385;28;20387;-51
2023/01/11 06:51:13;;;;;;;4.43;0.47;;;9.30;99.90;;;;;;5071124;28;20403;-51
2023/01/11 06:53:41;;;;;;;4.80;0.30;;;8.90;99.90;;;;;;5072348;28;20904;-52
2023/01/11 06:56:09;;;;;;;3.80;0.40;;;8.90;99.90;;;;;;5071782;28;20483;-51
2023/01/11 06:58:36;;;;;;;3.95;0.50;;;9.00;28.00;;;;;;5071313;28;20433;-51
2023/01/11 07:01:02;;;;;;;3.80;0.30;;;9.00;99.90;;;;;;5071626;28;20459;-52
2023/01/11 07:03:28;;;;;;;3.70;0.40;;;9.00;1.00;;;;;;5069571;28;21133;-53
2023/01/11 07:05:55;;;;;;;3.70;0.32;;;9.00;1.00;;;;;;5065584;28;20415;-56
2023/01/11 07:08:21;;;;;;;3.60;0.30;;;9.00;1.00;;;;;;5072265;28;20395;-51
2023/01/11 07:10:47;;;;;;;3.78;0.40;;;9.00;1.00;;;;;;5071819;28;20399;-51
2023/01/11 07:13:16;;;;;;;4.10;0.40;;;9.00;1.00;;;;;;5071476;28;20670;-51
2023/01/11 07:15:43;;;;;;;3.60;0.40;;;10.60;1.00;;;;;;5072064;28;20387;-51
2023/01/11 07:18:10;;;;;;;4.00;0.50;;;8.90;99.90;;;;;;5071565;28;20400;-51
2023/01/11 07:20:36;;;;;;;4.00;0.40;;;8.90;1.00;;;;;;5072025;28;20379;-51
2023/01/11 07:23:02;;;;;;;5.97;0.60;;;8.90;99.90;;;;;;5071119;28;20423;-51
2023/01/11 07:25:28;;;;;;;4.50;0.50;;;9.00;99.90;;;;;;5072058;28;20375;-51
2023/01/11 07:28:03;;;;;;;4.60;0.70;;;9.10;1.00;;;;;;5071027;28;20372;-55
2023/01/11 07:30:30;;;;;;;4.00;0.50;;;9.10;99.90;;;;;;5072061;28;20833;-52
2023/01/11 07:32:57;;;;;;;4.70;0.40;;;9.30;99.90;;;;;;5070748;28;20415;-52
2023/01/11 07:35:23;;;;;;;4.03;0.50;;;9.50;1.00;;;;;;5070333;28;20488;-52
2023/01/11 07:37:48;;;;;;;5.70;0.60;;;9.50;99.90;;;;;;5071671;28;20764;-52
2023/01/11 07:40:17;;;;;;;3.80;0.40;;;9.60;1.00;;;;;;5052869;28;20367;-53
2023/01/11 07:45:36;;;;;;;3.90;0.57;;;9.70;1.00;;;;;;5071339;28;20409;-52
2023/01/11 07:48:07;;;;;;;5.25;0.60;;;9.80;99.90;;;;;;5070212;28;20388;-52
2023/01/11 07:50:32;;;;;;;3.87;0.40;;;9.80;99.90;;;;;;5071203;28;20375;-54
2023/01/11 07:52:58;;;;;;;3.90;0.50;;;9.80;99.90;;;;;;5070955;28;20411;-53
2023/01/11 07:55:24;;;;;;;3.90;0.40;;;9.80;1.00;;;;;;5071721;28;20856;-53
2023/01/11 07:57:49;;;;;;;4.18;0.65;;;9.90;99.90;;;;;;5071475;28;20371;-53
2023/01/11 08:00:15;;;;;;;3.70;0.40;;;10.00;1.00;;;;;;5070159;28;20777;-51
2023/01/11 08:02:41;;;;;;;4.05;0.40;;;10.10;1.00;;;;;;5070703;28;20388;-54
2023/01/11 08:05:08;;;;;;;4.35;0.50;;;10.10;1.00;;;;;;5069715;28;20395;-53
2023/01/11 08:07:33;;;;;;;3.90;0.40;;;10.10;1.00;;;;;;5070836;28;20388;-54
2023/01/11 08:09:59;;;;;;;4.20;0.50;;;10.00;1.00;;;;;;5069933;28;20405;-53
2023/01/11 08:15:11;;;;;;;3.80;0.50;;;10.10;1.00;;;;;;5069610;28;20437;-53
2023/01/11 08:17:37;;;;;;;3.90;0.40;;;10.10;1.00;;;;;;5070711;28;20718;-53
2023/01/11 08:20:03;;;;;;;3.90;0.47;;;10.10;1.00;;;;;;5069638;28;20454;-53
2023/01/11 08:22:29;;;;;;;4.90;0.35;;;10.20;1.00;;;;;;5070384;28;20459;-54
2023/01/11 08:24:54;;;;;;;3.80;0.40;;;10.20;1.00;;;;;;5070249;28;20384;-57
2023/01/11 08:27:20;;;;;;;4.40;0.50;;;9.90;1.00;;;;;;5069844;28;20721;-54
2023/01/11 08:29:45;;;;;;;4.20;0.40;;;10.20;1.00;;;;;;5070152;28;20741;-53
2023/01/11 08:32:12;;;;;;;3.90;0.50;;;10.20;1.00;;;;;;5069556;28;20416;-50
2023/01/11 08:34:38;;;;;;;4.18;0.40;;;10.30;1.00;;;;;;5070514;28;20444;-53
2023/01/11 08:37:04;;;;;;;4.00;0.50;;;10.30;99.90;;;;;;5068883;28;20400;-53
2023/01/11 08:39:30;;;;;;;3.90;0.43;;;10.40;99.90;;;;;;5070493;28;20464;-53
2023/01/11 08:41:59;;;;;;;4.10;0.50;;;10.40;99.90;;;;;;5069336;28;20379;-57
2023/01/11 08:44:25;;;;;;;4.55;0.60;;;10.50;99.90;;;;;;5070284;28;20388;-52
2023/01/11 08:46:51;;;;;;;4.00;0.43;;;10.50;16.50;;;;;;5070205;28;20376;-53
2023/01/11 08:49:17;;;;;;;4.03;0.50;;;10.50;1.00;;;;;;5068677;28;20894;-52
2023/01/11 08:51:42;;;;;;;3.90;0.40;;;10.70;1.00;;;;;;5069675;28;20756;-52
2023/01/11 08:54:13;;;;;;;5.30;0.50;;;10.50;1.00;;;;;;5069290;28;20380;-51
2023/01/11 08:56:39;;;;;;;3.80;0.40;;;10.50;1.80;;;;;;5069874;28;20449;-51
2023/01/11 08:59:05;;;;;;;4.00;0.60;;;10.50;1.00;;;;;;5068934;28;20379;-52
2023/01/11 09:01:32;;;;;;;4.80;0.60;;;10.50;18.50;;;;;;5068332;28;20392;-52
2023/01/11 09:03:58;;;;;;;4.90;0.40;;;10.50;92.50;;;;;;5068537;28;20758;-53
2023/01/11 09:06:24;;;;;;;4.97;0.43;;;10.60;99.90;;;;;;5069677;28;20873;-52
2023/01/11 09:08:49;;;;;;;3.67;0.30;;;10.70;1.00;;;;;;5069734;28;20383;-52
2023/01/11 09:13:59;;;;;;;4.15;0.40;;;10.70;1.00;;;;;;5068359;28;20789;-52
2023/01/11 09:16:25;;;;;;;4.25;0.60;;;10.80;1.00;;;;;;5069433;28;20418;-52
2023/01/11 09:18:50;;;;;;;4.05;0.50;;;10.80;1.00;;;;;;5069545;28;20472;-52
2023/01/11 09:21:16;;;;;;;3.80;0.40;;;10.80;1.00;;;;;;5050369;28;20467;-52
2023/01/11 09:23:43;;;;;;;4.20;0.50;;;10.90;1.00;;;;;;5069476;28;20372;-52
2023/01/11 09:26:10;;;;;;;4.90;0.50;;;10.80;1.00;;;;;;5068918;28;20372;-51
2023/01/11 09:28:36;;;;;;;3.80;0.30;;;10.90;1.00;;;;;;5069271;28;20422;-52
2023/01/11 09:31:02;;;;;;;3.90;0.40;;;11.00;1.00;;;;;;5068438;28;20436;-53
2023/01/11 09:33:28;;;;;;;3.90;0.50;;;11.00;1.00;;;;;;5069243;28;20918;-51
2023/01/11 09:35:56;;;;;;;3.90;0.40;;;10.90;1.00;;;;;;5068566;28;20411;-55
2023/01/11 09:38:27;;;;;;;3.80;0.40;;;10.90;1.00;;;;;;5069022;28;20400;-52
2023/01/11 09:41:05;;;;;;;3.90;0.40;;;11.00;1.00;;;;;;5069496;28;20842;-55
2023/01/11 09:43:38;;;;;;;4.00;0.40;;;11.10;1.00;;;;;;5069236;28;20462;-52
2023/01/11 09:46:07;;;;;;;4.00;0.40;;;11.00;1.00;;;;;;5068259;28;20383;-52
2023/01/11 09:48:57;;;;;;;4.20;0.60;;;11.00;1.00;;;;;;5069370;28;20382;-52
2023/01/11 09:51:29;;;;;;;3.83;0.40;;;10.90;1.00;;;;;;5069018;28;20454;-51
2023/01/11 09:53:57;;;;;;;4.20;0.40;;;10.90;99.90;;;;;;5068283;28;20865;-56
2023/01/11 09:56:30;;;;;;;3.90;0.50;;;11.00;99.90;;;;;;5069017;28;20426;-52
2023/01/11 09:59:21;;;;;;;3.90;0.38;;;11.10;99.90;;;;;;5068761;28;20383;-56
2023/01/11 10:02:00;;;;;;;3.88;0.38;;;11.10;99.90;;;;;;5068952;28;20388;-52
2023/01/11 10:04:32;;;;;;;4.60;0.60;;;11.10;99.90;;;;;;5068964;28;20907;-52
2023/01/11 10:07:17;;;;;;;4.10;0.50;;;11.10;99.90;;;;;;5068407;28;20487;-56
2023/01/11 10:10:19;;;;;;;4.50;0.50;;;11.20;99.90;;;;;;5069086;28;20392;-52
2023/01/11 10:13:13;;;;;;;4.00;0.50;;;11.10;99.90;;;;;;5024268;28;20737;-53
2023/01/11 10:15:49;;;;;;;4.10;0.40;;;11.10;99.90;;;;;;5048900;28;20857;-52
2023/01/11 10:18:25;;;;;;;4.45;0.50;;;11.10;99.90;;;;;;5047897;28;21089;-51
2023/01/11 10:21:00;;;;;;;4.10;0.60;;;11.10;99.90;;;;;;5048877;28;20392;-52
2023/01/11 10:23:40;;;;;;;4.97;0.43;;;11.10;99.90;;;;;;5048832;28;20460;-52
2023/01/11 10:26:21;;;;;;;4.20;0.60;;;11.20;99.90;;;;;;5048484;28;20839;-51
2023/01/11 10:32:38;;;;;;;4.57;0.60;;;11.10;99.90;;;;;;5048653;28;20845;-51
2023/01/11 10:34:59;;;;;;;8.68;3.60;;;11.00;1.00;;;;;;5046909;28;20420;-51
2023/01/11 10:41:01;;;;;;;4.55;1.17;;;11.10;99.90;;;;;;5029184;28;20476;-52
2023/01/11 10:43:29;;;;;;;4.97;1.47;;;11.10;99.90;;;;;;5052518;28;20389;-51
2023/01/11 10:46:12;;;;;;;6.60;2.38;;;11.20;99.90;;;;;;5052440;28;20385;-56
2023/01/11 10:48:41;;;;;;;6.32;2.83;;;11.30;99.90;;;;;;5052454;28;20382;-52
2023/01/11 10:51:23;;;;;;;6.30;2.33;;;11.20;99.90;;;;;;5051605;28;20405;-52
2023/01/11 10:54:01;;;;;;;6.32;2.00;;;11.30;99.90;;;;;;5052489;28;20874;-52
2023/01/11 10:56:44;;;;;;;6.30;1.17;;;11.20;1.00;;;;;;5050589;28;20396;-52
2023/01/11 10:59:35;;;;;;;7.47;2.97;;;11.20;99.90;;;;;;5051307;28;20385;-53
2023/01/11 11:02:16;;;;;;;5.00;0.80;;;11.20;59.70;;;;;;5051646;28;20468;-52
2023/01/11 11:05:16;;;;;;;4.50;0.70;;;11.20;99.90;;;;;;5052090;28;20858;-51
2023/01/11 11:08:10;;;;;;;4.60;1.40;;;11.30;99.90;;;;;;5052011;28;20451;-52
2023/01/11 11:11:00;;;;;;;4.28;0.90;;;11.40;99.90;;;;;;5052288;28;20489;-52
2023/01/11 11:13:26;;;;;;;5.20;1.38;;;11.30;1.00;;;;;;5057014;28;20398;-52
2023/01/11 11:16:22;;;;;;;4.40;0.82;;;11.30;99.90;;;;;;5072165;28;20379;-52
2023/01/11 11:18:53;;;;;;;4.70;0.80;;;11.30;1.00;;;;;;5071896;28;20744;-52
2023/01/11 11:21:22;;;;;;;4.15;0.70;;;11.20;1.00;;;;;;5071446;28;20440;-52
2023/01/11 11:23:54;;;;;;;4.60;0.80;;;11.30;89.50;;;;;;5071929;28;20368;-52
2023/01/11 11:26:23;;;;;;;4.00;0.50;;;11.40;1.00;;;;;;5071047;28;20379;-52
2023/01/11 11:29:04;;;;;;;4.20;0.80;;;11.30;1.00;;;;;;5071988;28;20383;-52
2023/01/11 11:31:31;;;;;;;4.70;1.10;;;11.40;99.90;;;;;;5071520;28;20462;-52
2023/01/11 11:34:06;;;;;;;5.60;1.20;;;11.40;1.00;;;;;;5071307;28;20399;-56
2023/01/11 11:36:50;;;;;;;4.50;0.63;;;11.50;99.90;;;;;;5071788;28;20403;-52
2023/01/11 11:39:28;;;;;;;4.00;0.50;;;11.50;1.00;;;;;;5070491;28;20387;-52
2023/01/11 11:42:07;;;;;;;4.03;0.70;;;11.50;96.70;;;;;;5071483;28;20913;-52
2023/01/11 11:44:32;;;;;;;4.10;0.60;;;11.60;99.90;;;;;;5071353;28;20380;-52
2023/01/11 11:47:14;;;;;;;5.53;0.60;;;11.50;1.00;;;;;;5071003;28;20386;-56
2023/01/11 11:49:41;;;;;;;4.50;0.60;;;11.60;1.00;;;;;;5071415;28;20375;-52
2023/01/11 11:52:11;;;;;;;4.10;0.50;;;11.60;1.00;;;;;;5070371;28;20525;-52
2023/01/11 11:54:48;;;;;;;5.10;1.25;;;11.50;1.00;;;;;;5071398;28;20388;-52
2023/01/11 11:57:23;;;;;;;4.40;0.60;;;11.40;99.90;;;;;;5070426;28;20368;-52
2023/01/11 11:59:58;;;;;;;4.95;1.20;;;11.40;5.30;;;;;;5071231;28;20392;-52
2023/01/11 12:02:28;;;;;;;4.80;1.10;;;11.50;1.00;;;;;;5071264;28;20890;-52
2023/01/11 12:04:57;;;;;;;7.10;0.90;;;11.40;99.90;;;;;;5070690;28;20904;-52
2023/01/11 12:07:30;;;;;;;5.70;1.30;;;11.40;99.90;;;;;;5070726;28;20873;-52
2023/01/11 12:10:10;;;;;;;4.50;1.20;;;11.40;1.00;;;;;;5071095;28;20382;-57
2023/01/11 12:12:53;;;;;;;4.20;0.70;;;11.50;1.00;;;;;;5070855;28;20415;-53
2023/01/11 12:15:22;;;;;;;4.32;0.70;;;11.50;1.00;;;;;;5050205;28;20867;-51
2023/01/11 12:17:49;;;;;;;4.57;0.70;;;11.60;1.00;;;;;;5069677;28;20422;-52
2023/01/11 12:20:31;;;;;;;4.67;0.80;;;11.50;1.00;;;;;;5070253;28;20382;-53
2023/01/11 12:23:22;;;;;;;4.55;0.80;;;11.40;1.00;;;;;;5053831;28;20413;-56
2023/01/11 12:26:06;;;;;;;4.20;0.70;;;11.40;1.00;;;;;;5065222;28;20483;-52
2023/01/11 12:28:43;;;;;;;4.45;0.70;;;11.30;1.00;;;;;;5068521;28;20386;-52
2023/01/11 12:31:41;;;;;;;5.50;0.70;;;11.30;1.00;;;;;;5065994;28;20980;-53
2023/01/11 12:34:34;;;;;;;4.20;0.73;;;11.30;99.90;;;;;;5067171;28;20841;-52
2023/01/11 12:37:29;;;;;;;5.05;0.88;;;11.40;1.00;;;;;;5065663;28;20826;-52
2023/01/11 12:40:02;;;;;;;4.53;0.90;;;11.40;8.70;;;;;;5069014;28;20383;-52
2023/01/11 12:42:39;;;;;;;4.40;0.80;;;11.50;1.00;;;;;;5069066;28;20399;-52
2023/01/11 12:45:48;;;;;;;4.60;1.00;;;11.50;1.00;;;;;;5066376;28;20407;-52
2023/01/11 12:48:26;;;;;;;4.38;0.73;;;11.60;1.00;;;;;;5066717;28;20872;-52
2023/01/11 12:51:11;;;;;;;4.45;0.88;;;11.60;1.00;;;;;;5066934;28;20388;-52
2023/01/11 12:54:08;;;;;;;4.75;1.02;;;11.50;1.00;;;;;;5067150;28;20380;-53
2023/01/11 12:56:38;;;;;;;4.90;0.80;;;11.50;91.60;;;;;;5066678;28;20448;-53
2023/01/11 12:59:28;;;;;;;4.70;0.70;;;11.40;99.90;;;;;;5068318;28;20489;-52
2023/01/11 13:02:03;;;;;;;5.57;1.20;;;11.40;99.90;;;;;;5067234;28;20411;-52
2023/01/11 13:04:36;;;;;;;4.10;0.80;;;11.30;99.90;;;;;;5069230;28;20399;-52
2023/01/11 13:07:20;;;;;;;3.80;0.55;;;11.40;99.90;;;;;;5068583;28;20387;-52
2023/01/11 13:09:56;;;;;;;3.80;0.40;;;11.30;99.90;;;;;;5069388;28;20383;-52
2023/01/11 13:12:33;;;;;;;3.80;0.45;;;11.30;99.90;;;;;;5066889;28;20415;-52
2023/01/11 13:15:18;;;;;;;3.50;0.30;;;11.30;99.90;;;;;;5066841;28;20380;-56
2023/01/11 13:18:06;;;;;;;4.20;0.40;;;11.30;99.90;;;;;;5067836;28;20808;-53
2023/01/11 13:20:37;;;;;;;3.50;0.40;;;11.30;99.90;;;;;;5049583;28;20440;-52
2023/01/11 13:23:40;;;;;;;4.70;0.45;;;11.30;99.90;;;;;;5061380;28;20387;-52
2023/01/11 13:26:17;;;;;;;3.85;0.50;;;11.10;99.90;;;;;;5045181;28;20407;-52
2023/01/11 13:28:48;;;;;;;3.50;0.40;;;11.20;1.00;;;;;;5065704;28;20920;-53
2023/01/11 13:31:15;;;;;;;3.63;0.43;;;11.20;99.90;;;;;;5070135;28;20416;-52
2023/01/11 13:33:46;;;;;;;3.55;0.30;;;11.20;99.90;;;;;;5069084;28;20383;-52
2023/01/11 13:36:14;;;;;;;3.50;0.30;;;11.20;99.90;;;;;;5067857;28;20502;-53
2023/01/11 13:38:55;;;;;;;3.70;0.50;;;11.20;99.90;;;;;;5066896;28;20395;-52
2023/01/11 13:41:26;;;;;;;3.60;0.40;;;11.20;1.00;;;;;;5069163;28;20394;-52
2023/01/11 13:44:04;;;;;;;3.40;0.30;;;11.10;1.00;;;;;;5071089;28;20378;-52
2023/01/11 13:46:30;;;;;;;3.97;0.60;;;11.00;1.00;;;;;;5068138;28;20384;-52
2023/01/11 13:49:05;;;;;;;3.80;0.60;;;11.10;1.00;;;;;;5070542;28;20391;-52
2023/01/11 13:51:41;;;;;;;4.20;0.50;;;11.10;1.00;;;;;;5071126;28;20419;-52
2023/01/11 13:54:22;;;;;;;3.70;0.50;;;10.90;1.00;;;;;;5070055;28;20379;-52
2023/01/11 13:56:57;;;;;;;3.70;0.40;;;11.40;1.00;;;;;;5067319;28;20400;-52